Wetterdaten: Freitag, 02.04.2021
Datum Zeit Temp. A. Temp. A. min Temp. A. max Feuchte A. Bod.Feucht 4 Luftdruck Regen Wind Richtung Richtung Sonnenschein ET Solar Taupunkt Windchill Windben Empfang
02.04.2021 00:00 12,4 C 12,4 C 12,8 C 69 % 0 cb 1019,7 hPa 0,0 l/m 8,0 km/h (2 Bft) N-NO 22 0 min 0,051 mm 0 W/m 6,9 C 12,4 C 17,7 km/h (3 Bft) 100,00 %
02.04.2021 00:10 12,2 C 12,2 C 12,4 C 70 % 0 cb 1019,8 hPa 0,0 l/m 3,2 km/h (1 Bft) N-NO 22 0 min 0,000 mm 0 W/m 6,9 C 12,2 C 11,3 km/h (2 Bft) 77,63 %
02.04.2021 00:20 11,8 C 11,8 C 12,2 C 71 % 0 cb 1019,9 hPa 0,0 l/m 8,0 km/h (2 Bft) N-NO 22 0 min 0,000 mm 0 W/m 6,7 C 11,8 C 17,7 km/h (3 Bft) 100,00 %
02.04.2021 00:30 11,6 C 11,6 C 11,8 C 72 % 0 cb 1019,9 hPa 0,0 l/m 6,4 km/h (2 Bft) N-NO 22 0 min 0,000 mm 0 W/m 6,7 C 11,6 C 16,1 km/h (3 Bft) 100,00 %
02.04.2021 00:40 11,3 C 11,3 C 11,6 C 72 % 0 cb 1019,9 hPa 0,0 l/m 6,4 km/h (2 Bft) N 360 0 min 0,000 mm 0 W/m 6,4 C 11,3 C 20,9 km/h (4 Bft) 100,00 %
02.04.2021 00:50 11,1 C 11,1 C 11,3 C 73 % 0 cb 1020,0 hPa 0,0 l/m 6,4 km/h (2 Bft) N 360 0 min 0,000 mm 0 W/m 6,4 C 11,1 C 16,1 km/h (3 Bft) 100,00 %
02.04.2021 01:00 10,8 C 10,8 C 11,1 C 73 % 0 cb 1020,0 hPa 0,0 l/m 8,0 km/h (2 Bft) N-NO 22 0 min 0,025 mm 0 W/m 6,2 C 10,8 C 20,9 km/h (4 Bft) 100,00 %
02.04.2021 01:10 10,6 C 10,6 C 10,8 C 73 % 0 cb 1020,0 hPa 0,0 l/m 6,4 km/h (2 Bft) NO 45 0 min 0,000 mm 0 W/m 6,0 C 10,6 C 20,9 km/h (4 Bft) 99,56 %
02.04.2021 01:20 10,4 C 10,4 C 10,6 C 73 % 0 cb 1020,0 hPa 0,0 l/m 4,8 km/h (1 Bft) N 360 0 min 0,000 mm 0 W/m 5,8 C 10,4 C 17,7 km/h (3 Bft) 100,00 %
02.04.2021 01:30 10,2 C 10,2 C 10,4 C 73 % 0 cb 1020,0 hPa 0,0 l/m 6,4 km/h (2 Bft) NO 45 0 min 0,000 mm 0 W/m 5,6 C 10,2 C 17,7 km/h (3 Bft) 100,00 %
02.04.2021 01:40 9,9 C 9,9 C 10,2 C 72 % 0 cb 1020,0 hPa 0,0 l/m 6,4 km/h (2 Bft) N 360 0 min 0,000 mm 0 W/m 5,1 C 9,3 C 19,3 km/h (3 Bft) 100,00 %
02.04.2021 01:50 9,7 C 9,7 C 9,9 C 72 % 0 cb 1020,1 hPa 0,0 l/m 4,8 km/h (1 Bft) N-NO 22 0 min 0,000 mm 0 W/m 4,9 C 9,5 C 14,5 km/h (3 Bft) 100,00 %
02.04.2021 02:00 9,5 C 9,5 C 9,7 C 72 % 0 cb 1020,1 hPa 0,0 l/m 3,2 km/h (1 Bft) N-NO 22 0 min 0,025 mm 0 W/m 4,7 C 9,5 C 11,3 km/h (2 Bft) 100,00 %
02.04.2021 02:10 9,3 C 9,3 C 9,5 C 72 % 0 cb 1020,1 hPa 0,0 l/m 1,6 km/h (1 Bft) N-NO 22 0 min 0,000 mm 0 W/m 4,5 C 9,3 C 11,3 km/h (2 Bft) 100,00 %
02.04.2021 02:20 9,2 C 9,2 C 9,3 C 72 % 0 cb 1020,1 hPa 0,0 l/m 1,6 km/h (1 Bft) N-NO 22 0 min 0,000 mm 0 W/m 4,4 C 9,2 C 4,8 km/h (1 Bft) 100,00 %
02.04.2021 02:30 8,9 C 8,9 C 9,2 C 72 % 0 cb 1020,1 hPa 0,0 l/m 4,8 km/h (1 Bft) NO 45 0 min 0,000 mm 0 W/m 4,1 C 8,6 C 11,3 km/h (2 Bft) 100,00 %
02.04.2021 02:40 8,7 C 8,7 C 8,9 C 72 % 0 cb 1020,0 hPa 0,0 l/m 6,4 km/h (2 Bft) NO 45 0 min 0,000 mm 0 W/m 3,9 C 7,9 C 19,3 km/h (3 Bft) 100,00 %
02.04.2021 02:50 8,6 C 8,6 C 8,7 C 71 % 0 cb 1020,0 hPa 0,0 l/m 9,7 km/h (2 Bft) NO 45 0 min 0,000 mm 0 W/m 3,6 C 7,0 C 22,5 km/h (4 Bft) 100,00 %
02.04.2021 03:00 8,4 C 8,4 C 8,6 C 71 % 0 cb 1019,9 hPa 0,0 l/m 9,7 km/h (2 Bft) N-NO 22 0 min 0,025 mm 0 W/m 3,5 C 6,8 C 24,1 km/h (4 Bft) 100,00 %
02.04.2021 03:10 8,2 C 8,2 C 8,4 C 72 % 0 cb 1020,0 hPa 0,0 l/m 8,0 km/h (2 Bft) N 360 0 min 0,000 mm 0 W/m 3,5 C 6,9 C 20,9 km/h (4 Bft) 100,00 %
02.04.2021 03:20 8,0 C 8,0 C 8,2 C 71 % 0 cb 1020,1 hPa 0,0 l/m 6,4 km/h (2 Bft) NO 45 0 min 0,000 mm 0 W/m 3,1 C 7,1 C 20,9 km/h (4 Bft) 100,00 %
02.04.2021 03:30 7,8 C 7,8 C 8,0 C 72 % 0 cb 1020,1 hPa 0,0 l/m 6,4 km/h (2 Bft) NO 45 0 min 0,000 mm 0 W/m 3,1 C 6,8 C 22,5 km/h (4 Bft) 100,00 %
02.04.2021 03:40 7,6 C 7,6 C 7,8 C 72 % 0 cb 1020,1 hPa 0,0 l/m 9,7 km/h (2 Bft) N 360 0 min 0,000 mm 0 W/m 2,9 C 5,8 C 22,5 km/h (4 Bft) 100,00 %
02.04.2021 03:50 7,4 C 7,3 C 7,6 C 72 % 0 cb 1020,3 hPa 0,0 l/m 4,8 km/h (1 Bft) N 360 0 min 0,000 mm 0 W/m 2,7 C 6,9 C 17,7 km/h (3 Bft) 99,12 %
02.04.2021 04:00 7,1 C 7,1 C 7,3 C 72 % 0 cb 1020,1 hPa 0,0 l/m 4,8 km/h (1 Bft) NO 45 0 min 0,025 mm 0 W/m 2,4 C 6,5 C 22,5 km/h (4 Bft) 100,00 %
02.04.2021 04:10 6,8 C 6,8 C 7,1 C 73 % 0 cb 1020,2 hPa 0,0 l/m 3,2 km/h (1 Bft) N-NO 22 0 min 0,000 mm 0 W/m 2,3 C 6,8 C 11,3 km/h (2 Bft) 100,00 %
02.04.2021 04:20 6,6 C 6,6 C 6,8 C 73 % 0 cb 1020,3 hPa 0,0 l/m 3,2 km/h (1 Bft) N-NO 22 0 min 0,000 mm 0 W/m 2,1 C 6,6 C 12,9 km/h (3 Bft) 100,00 %
02.04.2021 04:30 6,3 C 6,3 C 6,6 C 73 % 0 cb 1020,3 hPa 0,0 l/m 3,2 km/h (1 Bft) N-NO 22 0 min 0,000 mm 0 W/m 1,8 C 6,3 C 9,7 km/h (2 Bft) 100,00 %
02.04.2021 04:40 6,1 C 6,1 C 6,3 C 73 % 0 cb 1020,4 hPa 0,0 l/m 4,8 km/h (1 Bft) NO 45 0 min 0,000 mm 0 W/m 1,6 C 5,4 C 16,1 km/h (3 Bft) 100,00 %
02.04.2021 04:50 5,8 C 5,8 C 6,2 C 73 % 0 cb 1020,5 hPa 0,0 l/m 6,4 km/h (2 Bft) N 360 0 min 0,000 mm 0 W/m 1,3 C 4,5 C 17,7 km/h (3 Bft) 99,56 %
02.04.2021 05:00 5,6 C 5,6 C 5,8 C 73 % 0 cb 1020,5 hPa 0,0 l/m 6,4 km/h (2 Bft) O-NO 67 0 min 0,025 mm 0 W/m 1,2 C 4,3 C 16,1 km/h (3 Bft) 100,00 %
02.04.2021 05:10 5,3 C 5,3 C 5,6 C 74 % 0 cb 1020,5 hPa 0,0 l/m 4,8 km/h (1 Bft) N 360 0 min 0,000 mm 0 W/m 1,0 C 4,5 C 14,5 km/h (3 Bft) 100,00 %
02.04.2021 05:20 5,0 C 5,0 C 5,3 C 75 % 0 cb 1020,5 hPa 0,0 l/m 6,4 km/h (2 Bft) N 360 0 min 0,000 mm 0 W/m 0,9 C 3,6 C 17,7 km/h (3 Bft) 100,00 %
02.04.2021 05:30 4,8 C 4,8 C 5,0 C 75 % 0 cb 1020,4 hPa 0,0 l/m 4,8 km/h (1 Bft) NO 45 0 min 0,000 mm 0 W/m 0,8 C 3,9 C 14,5 km/h (3 Bft) 100,00 %
02.04.2021 05:40 4,6 C 4,6 C 4,8 C 76 % 0 cb 1020,4 hPa 0,0 l/m 3,2 km/h (1 Bft) NO 45 0 min 0,000 mm 0 W/m 0,7 C 4,6 C 9,7 km/h (2 Bft) 100,00 %
02.04.2021 05:50 4,3 C 4,3 C 4,6 C 78 % 0 cb 1020,5 hPa 0,0 l/m 4,8 km/h (1 Bft) NO 45 0 min 0,000 mm 0 W/m 0,8 C 3,4 C 11,3 km/h (2 Bft) 100,00 %
02.04.2021 06:00 4,2 C 4,2 C 4,3 C 78 % 0 cb 1020,5 hPa 0,0 l/m 4,8 km/h (1 Bft) N-NO 22 0 min 0,025 mm 0 W/m 0,7 C 3,3 C 17,7 km/h (3 Bft) 99,12 %
02.04.2021 06:10 4,1 C 4,1 C 4,2 C 79 % 0 cb 1020,5 hPa 0,0 l/m 6,4 km/h (2 Bft) N-NO 22 0 min 0,000 mm 0 W/m 0,8 C 2,6 C 14,5 km/h (3 Bft) 97,81 %
02.04.2021 06:20 3,9 C 3,9 C 4,1 C 79 % 0 cb 1020,5 hPa 0,0 l/m 4,8 km/h (1 Bft) N 360 0 min 0,000 mm 0 W/m 0,6 C 2,9 C 12,9 km/h (3 Bft) 100,00 %
02.04.2021 06:30 3,8 C 3,8 C 3,9 C 80 % 0 cb 1020,6 hPa 0,0 l/m 6,4 km/h (2 Bft) N-NO 22 0 min 0,000 mm 0 W/m 0,7 C 2,2 C 16,1 km/h (3 Bft) 100,00 %
02.04.2021 06:40 3,7 C 3,7 C 3,8 C 81 % 0 cb 1020,7 hPa 0,0 l/m 6,4 km/h (2 Bft) N-NO 22 0 min 0,000 mm 0 W/m 0,7 C 2,1 C 14,5 km/h (3 Bft) 100,00 %
02.04.2021 06:50 3,6 C 3,6 C 3,7 C 81 % 0 cb 1020,7 hPa 0,0 l/m 6,4 km/h (2 Bft) N-NO 22 0 min 0,000 mm 0 W/m 0,7 C 2,0 C 17,7 km/h (3 Bft) 100,00 %
02.04.2021 07:00 3,5 C 3,5 C 3,7 C 82 % 0 cb 1020,8 hPa 0,0 l/m 4,8 km/h (1 Bft) N-NO 22 0 min 0,000 mm 0 W/m 0,7 C 2,5 C 14,5 km/h (3 Bft) 100,00 %
02.04.2021 07:10 3,4 C 3,4 C 3,5 C 82 % 0 cb 1020,8 hPa 0,0 l/m 3,2 km/h (1 Bft) N-NO 22 0 min 0,000 mm 5 W/m 0,6 C 3,4 C 12,9 km/h (3 Bft) 100,00 %
02.04.2021 07:20 3,3 C 3,3 C 3,4 C 83 % 0 cb 1020,8 hPa 0,0 l/m 6,4 km/h (2 Bft) N-NO 22 0 min 0,000 mm 11 W/m 0,7 C 1,6 C 16,1 km/h (3 Bft) 99,56 %
02.04.2021 07:30 3,3 C 3,2 C 3,3 C 83 % 0 cb 1020,8 hPa 0,0 l/m 4,8 km/h (1 Bft) N-NO 22 0 min 0,000 mm 16 W/m 0,7 C 2,2 C 14,5 km/h (3 Bft) 99,12 %
02.04.2021 07:40 3,2 C 3,2 C 3,3 C 83 % 0 cb 1020,8 hPa 0,0 l/m 4,8 km/h (1 Bft) N-NO 22 0 min 0,000 mm 19 W/m 0,6 C 2,1 C 11,3 km/h (2 Bft) 100,00 %
02.04.2021 07:50 3,2 C 3,2 C 3,2 C 84 % 0 cb 1020,9 hPa 0,0 l/m 3,2 km/h (1 Bft) N-NO 22 0 min 0,000 mm 25 W/m 0,8 C 3,2 C 9,7 km/h (2 Bft) 100,00 %
02.04.2021 08:00 3,3 C 3,2 C 3,3 C 84 % 0 cb 1020,9 hPa 0,0 l/m 4,8 km/h (1 Bft) N-NO 22 0 min 0,025 mm 28 W/m 0,9 C 2,2 C 14,5 km/h (3 Bft) 100,00 %
02.04.2021 08:10 3,4 C 3,3 C 3,4 C 83 % 0 cb 1021,1 hPa 0,0 l/m 6,4 km/h (2 Bft) N-NO 22 0 min 0,000 mm 35 W/m 0,8 C 1,7 C 16,1 km/h (3 Bft) 100,00 %
02.04.2021 08:20 3,6 C 3,4 C 3,6 C 83 % 0 cb 1021,2 hPa 0,0 l/m 4,8 km/h (1 Bft) N-NO 22 0 min 0,000 mm 40 W/m 1,0 C 2,6 C 12,9 km/h (3 Bft) 100,00 %
02.04.2021 08:30 3,7 C 3,6 C 3,7 C 83 % 0 cb 1021,2 hPa 0,0 l/m 4,8 km/h (1 Bft) N-NO 22 0 min 0,000 mm 46 W/m 1,1 C 2,7 C 16,1 km/h (3 Bft) 100,00 %
02.04.2021 08:40 4,0 C 3,7 C 4,0 C 82 % 0 cb 1021,2 hPa 0,0 l/m 6,4 km/h (2 Bft) NO 45 10 min 0,000 mm 195 W/m 1,2 C 2,4 C 19,3 km/h (3 Bft) 100,00 %
02.04.2021 08:50 4,4 C 4,0 C 4,4 C 81 % 0 cb 1021,3 hPa 0,0 l/m 8,0 km/h (2 Bft) NO 45 10 min 0,000 mm 225 W/m 1,4 C 2,4 C 17,7 km/h (3 Bft) 100,00 %
02.04.2021 09:00 4,9 C 4,4 C 4,9 C 79 % 0 cb 1021,3 hPa 0,0 l/m 6,4 km/h (2 Bft) NO 45 10 min 0,051 mm 250 W/m 1,6 C 3,5 C 16,1 km/h (3 Bft) 100,00 %
02.04.2021 09:10 5,3 C 4,9 C 5,3 C 77 % 0 cb 1021,3 hPa 0,0 l/m 8,0 km/h (2 Bft) N 360 10 min 0,000 mm 283 W/m 1,6 C 3,5 C 22,5 km/h (4 Bft) 100,00 %
02.04.2021 09:20 5,7 C 5,3 C 5,7 C 75 % 0 cb 1021,3 hPa 0,0 l/m 8,0 km/h (2 Bft) N 360 10 min 0,000 mm 316 W/m 1,6 C 4,0 C 17,7 km/h (3 Bft) 100,00 %
02.04.2021 09:30 5,9 C 5,7 C 5,9 C 74 % 0 cb 1021,4 hPa 0,0 l/m 8,0 km/h (2 Bft) N-NO 22 10 min 0,000 mm 352 W/m 1,6 C 4,2 C 19,3 km/h (3 Bft) 100,00 %
02.04.2021 09:40 6,3 C 5,9 C 6,3 C 72 % 0 cb 1021,6 hPa 0,0 l/m 6,4 km/h (2 Bft) O-NO 67 10 min 0,000 mm 373 W/m 1,6 C 5,1 C 20,9 km/h (4 Bft) 100,00 %
02.04.2021 09:50 6,6 C 6,3 C 6,6 C 71 % 0 cb 1021,6 hPa 0,0 l/m 8,0 km/h (2 Bft) N-NO 22 10 min 0,000 mm 552 W/m 1,7 C 5,0 C 22,5 km/h (4 Bft) 100,00 %
02.04.2021 10:00 6,3 C 6,3 C 6,7 C 69 % 0 cb 1021,7 hPa 0,0 l/m 9,7 km/h (2 Bft) N 360 10 min 0,152 mm 320 W/m 1,0 C 4,3 C 20,9 km/h (4 Bft) 100,00 %
02.04.2021 10:10 5,8 C 5,8 C 6,3 C 71 % 0 cb 1021,7 hPa 0,0 l/m 11,3 km/h (2 Bft) N-NO 22 10 min 0,000 mm 269 W/m 1,0 C 3,4 C 24,1 km/h (4 Bft) 100,00 %
02.04.2021 10:20 5,8 C 5,8 C 5,9 C 71 % 0 cb 1021,7 hPa 0,0 l/m 11,3 km/h (2 Bft) N-NO 22 10 min 0,000 mm 322 W/m 1,0 C 3,4 C 24,1 km/h (4 Bft) 100,00 %
02.04.2021 10:30 5,9 C 5,8 C 6,0 C 71 % 0 cb 1021,8 hPa 0,0 l/m 6,4 km/h (2 Bft) O-NO 67 10 min 0,000 mm 257 W/m 1,1 C 4,6 C 17,7 km/h (3 Bft) 100,00 %
02.04.2021 10:40 6,1 C 6,0 C 6,1 C 70 % 0 cb 1021,7 hPa 0,0 l/m 11,3 km/h (2 Bft) N-NO 22 10 min 0,000 mm 276 W/m 1,0 C 3,7 C 24,1 km/h (4 Bft) 100,00 %
02.04.2021 10:50 6,1 C 6,0 C 6,1 C 69 % 0 cb 1021,9 hPa 0,0 l/m 9,7 km/h (2 Bft) N 360 10 min 0,000 mm 269 W/m 0,8 C 4,0 C 19,3 km/h (3 Bft) 100,00 %
02.04.2021 11:00 6,2 C 6,1 C 6,2 C 70 % 0 cb 1021,8 hPa 0,0 l/m 6,4 km/h (2 Bft) N-NO 22 10 min 0,127 mm 295 W/m 1,1 C 5,0 C 17,7 km/h (3 Bft) 100,00 %
02.04.2021 11:10 6,7 C 6,2 C 6,7 C 69 % 0 cb 1021,7 hPa 0,0 l/m 6,4 km/h (2 Bft) N-NO 22 10 min 0,000 mm 759 W/m 1,4 C 5,6 C 17,7 km/h (3 Bft) 100,00 %
02.04.2021 11:20 6,9 C 6,7 C 6,9 C 67 % 0 cb 1021,8 hPa 0,0 l/m 9,7 km/h (2 Bft) N-NO 22 10 min 0,000 mm 418 W/m 1,2 C 5,0 C 24,1 km/h (4 Bft) 100,00 %
02.04.2021 11:30 7,4 C 6,9 C 7,4 C 65 % 0 cb 1021,8 hPa 0,0 l/m 6,4 km/h (2 Bft) N-NO 22 10 min 0,000 mm 800 W/m 1,3 C 6,4 C 16,1 km/h (3 Bft) 100,00 %
02.04.2021 11:40 7,6 C 7,3 C 7,6 C 64 % 0 cb 1021,7 hPa 0,0 l/m 8,0 km/h (2 Bft) N-NO 22 10 min 0,000 mm 784 W/m 1,2 C 6,2 C 22,5 km/h (4 Bft) 100,00 %
02.04.2021 11:50 7,8 C 7,6 C 7,9 C 64 % 0 cb 1021,7 hPa 0,0 l/m 9,7 km/h (2 Bft) N-NO 22 10 min 0,000 mm 745 W/m 1,4 C 6,1 C 24,1 km/h (4 Bft) 100,00 %
02.04.2021 12:00 7,7 C 7,7 C 7,9 C 64 % 0 cb 1021,8 hPa 0,0 l/m 11,3 km/h (2 Bft) N 360 10 min 0,254 mm 617 W/m 1,3 C 5,6 C 22,5 km/h (4 Bft) 100,00 %
02.04.2021 12:10 8,0 C 7,6 C 8,0 C 64 % 0 cb 1021,7 hPa 0,0 l/m 6,4 km/h (2 Bft) O-NO 67 10 min 0,000 mm 729 W/m 1,6 C 7,1 C 19,3 km/h (3 Bft) 99,12 %
02.04.2021 12:20 8,6 C 8,0 C 8,6 C 63 % 0 cb 1021,5 hPa 0,0 l/m 6,4 km/h (2 Bft) N-NW 337 10 min 0,000 mm 712 W/m 2,0 C 7,8 C 19,3 km/h (3 Bft) 100,00 %
02.04.2021 12:30 9,0 C 8,6 C 9,0 C 63 % 0 cb 1021,6 hPa 0,0 l/m 6,4 km/h (2 Bft) O-NO 67 10 min 0,000 mm 775 W/m 2,3 C 8,2 C 20,9 km/h (4 Bft) 100,00 %
02.04.2021 12:40 9,3 C 9,0 C 9,3 C 60 % 0 cb 1021,5 hPa 0,0 l/m 6,4 km/h (2 Bft) NO 45 10 min 0,000 mm 765 W/m 1,9 C 8,6 C 20,9 km/h (4 Bft) 100,00 %
02.04.2021 12:50 9,2 C 9,2 C 9,3 C 60 % 0 cb 1021,4 hPa 0,0 l/m 8,0 km/h (2 Bft) N-NO 22 10 min 0,000 mm 717 W/m 1,8 C 8,1 C 16,1 km/h (3 Bft) 93,42 %
02.04.2021 13:00 9,5 C 9,1 C 9,5 C 60 % 0 cb 1021,3 hPa 0,0 l/m 6,4 km/h (2 Bft) O 90 10 min 0,330 mm 722 W/m 2,1 C 8,8 C 17,7 km/h (3 Bft) 100,00 %
02.04.2021 13:10 9,7 C 9,5 C 9,7 C 58 % 0 cb 1021,3 hPa 0,0 l/m 8,0 km/h (2 Bft) O-NO 67 10 min 0,000 mm 724 W/m 1,8 C 8,7 C 17,7 km/h (3 Bft) 100,00 %
02.04.2021 13:20 9,8 C 9,7 C 9,8 C 59 % 0 cb 1021,3 hPa 0,0 l/m 6,4 km/h (2 Bft) O-NO 67 10 min 0,000 mm 726 W/m 2,2 C 9,1 C 17,7 km/h (3 Bft) 100,00 %
02.04.2021 13:30 10,0 C 9,8 C 10,0 C 58 % 0 cb 1021,1 hPa 0,0 l/m 6,4 km/h (2 Bft) N 360 10 min 0,000 mm 729 W/m 2,1 C 9,4 C 14,5 km/h (3 Bft) 100,00 %
02.04.2021 13:40 10,4 C 10,0 C 10,4 C 57 % 0 cb 1021,2 hPa 0,0 l/m 6,4 km/h (2 Bft) NO 45 10 min 0,000 mm 728 W/m 2,3 C 10,4 C 19,3 km/h (3 Bft) 100,00 %
02.04.2021 13:50 11,1 C 10,4 C 11,1 C 57 % 0 cb 1021,1 hPa 0,0 l/m 3,2 km/h (1 Bft) NO 45 10 min 0,000 mm 726 W/m 2,9 C 11,1 C 16,1 km/h (3 Bft) 100,00 %
02.04.2021 14:00 10,9 C 10,9 C 11,1 C 55 % 0 cb 1021,1 hPa 0,0 l/m 6,4 km/h (2 Bft) NO 45 10 min 0,356 mm 722 W/m 2,2 C 10,9 C 14,5 km/h (3 Bft) 100,00 %
02.04.2021 14:10 10,9 C 10,9 C 11,0 C 55 % 0 cb 1021,1 hPa 0,0 l/m 6,4 km/h (2 Bft) N-NO 22 10 min 0,000 mm 717 W/m 2,2 C 10,9 C 17,7 km/h (3 Bft) 100,00 %
02.04.2021 14:20 10,8 C 10,8 C 11,0 C 56 % 0 cb 1021,0 hPa 0,0 l/m 8,0 km/h (2 Bft) O-NO 67 10 min 0,000 mm 714 W/m 2,4 C 10,8 C 17,7 km/h (3 Bft) 100,00 %
02.04.2021 14:30 10,9 C 10,8 C 10,9 C 54 % 0 cb 1020,9 hPa 0,0 l/m 6,4 km/h (2 Bft) N-NO 22 10 min 0,000 mm 707 W/m 2,0 C 10,9 C 16,1 km/h (3 Bft) 100,00 %
02.04.2021 14:40 11,4 C 10,9 C 11,4 C 54 % 0 cb 1020,8 hPa 0,0 l/m 6,4 km/h (2 Bft) N-NO 22 10 min 0,000 mm 707 W/m 2,4 C 11,4 C 17,7 km/h (3 Bft) 100,00 %
02.04.2021 14:50 11,2 C 11,2 C 11,4 C 55 % 0 cb 1020,7 hPa 0,0 l/m 8,0 km/h (2 Bft) O 90 10 min 0,000 mm 691 W/m 2,5 C 11,2 C 19,3 km/h (3 Bft) 100,00 %
02.04.2021 15:00 11,4 C 11,3 C 11,4 C 54 % 0 cb 1020,6 hPa 0,0 l/m 6,4 km/h (2 Bft) N-NO 22 10 min 0,356 mm 682 W/m 2,4 C 11,4 C 19,3 km/h (3 Bft) 100,00 %
02.04.2021 15:10 11,4 C 11,4 C 11,4 C 53 % 0 cb 1020,6 hPa 0,0 l/m 8,0 km/h (2 Bft) NO 45 10 min 0,000 mm 666 W/m 2,2 C 11,4 C 19,3 km/h (3 Bft) 100,00 %
02.04.2021 15:20 11,3 C 11,2 C 11,4 C 55 % 0 cb 1020,6 hPa 0,0 l/m 8,0 km/h (2 Bft) N 360 10 min 0,000 mm 656 W/m 2,6 C 11,3 C 19,3 km/h (3 Bft) 100,00 %
02.04.2021 15:30 11,1 C 11,1 C 11,3 C 53 % 0 cb 1020,6 hPa 0,0 l/m 9,7 km/h (2 Bft) NO 45 10 min 0,000 mm 640 W/m 1,9 C 11,1 C 19,3 km/h (3 Bft) 100,00 %
02.04.2021 15:40 11,3 C 11,1 C 11,3 C 54 % 0 cb 1020,5 hPa 0,0 l/m 6,4 km/h (2 Bft) N 360 10 min 0,000 mm 624 W/m 2,3 C 11,3 C 17,7 km/h (3 Bft) 100,00 %
02.04.2021 15:50 11,5 C 11,3 C 11,6 C 53 % 0 cb 1020,6 hPa 0,0 l/m 6,4 km/h (2 Bft) O-NO 67 10 min 0,000 mm 605 W/m 2,3 C 11,5 C 16,1 km/h (3 Bft) 100,00 %
02.04.2021 16:00 11,2 C 11,2 C 11,5 C 53 % 0 cb 1020,5 hPa 0,0 l/m 8,0 km/h (2 Bft) N-NW 337 10 min 0,330 mm 591 W/m 2,0 C 11,2 C 19,3 km/h (3 Bft) 100,00 %
02.04.2021 16:10 11,5 C 11,2 C 11,5 C 53 % 0 cb 1020,5 hPa 0,0 l/m 8,0 km/h (2 Bft) N-NW 337 10 min 0,000 mm 577 W/m 2,3 C 11,5 C 17,7 km/h (3 Bft) 100,00 %
02.04.2021 16:20 11,5 C 11,4 C 11,5 C 52 % 0 cb 1019,1 hPa 0,0 l/m 9,7 km/h (2 Bft) N-NW 337 10 min 0,000 mm 555 W/m 2,0 C 11,5 C 20,9 km/h (4 Bft) 100,00 %
02.04.2021 16:30 11,4 C 11,4 C 11,6 C 52 % 0 cb 1017,9 hPa 0,0 l/m 9,7 km/h (2 Bft) N 360 10 min 0,000 mm 531 W/m 1,9 C 11,4 C 17,7 km/h (3 Bft) 100,00 %
02.04.2021 16:40 11,6 C 11,4 C 11,6 C 51 % 0 cb 1018,6 hPa 0,0 l/m 8,0 km/h (2 Bft) N-NW 337 10 min 0,000 mm 508 W/m 1,8 C 11,6 C 19,3 km/h (3 Bft) 100,00 %
02.04.2021 16:50 11,8 C 11,6 C 11,8 C 52 % 0 cb 1019,5 hPa 0,0 l/m 4,8 km/h (1 Bft) N 360 10 min 0,000 mm 487 W/m 2,3 C 11,8 C 16,1 km/h (3 Bft) 100,00 %
02.04.2021 17:00 12,2 C 11,8 C 12,2 C 50 % 0 cb 1019,3 hPa 0,0 l/m 4,8 km/h (1 Bft) NO 45 10 min 0,279 mm 461 W/m 2,1 C 12,2 C 19,3 km/h (3 Bft) 100,00 %
02.04.2021 17:10 12,0 C 12,0 C 12,2 C 50 % 0 cb 1019,3 hPa 0,0 l/m 9,7 km/h (2 Bft) N 360 10 min 0,000 mm 438 W/m 1,9 C 12,0 C 22,5 km/h (4 Bft) 100,00 %
02.04.2021 17:20 12,1 C 11,9 C 12,1 C 51 % 0 cb 1018,7 hPa 0,0 l/m 6,4 km/h (2 Bft) N 360 10 min 0,000 mm 411 W/m 2,3 C 12,1 C 25,7 km/h (4 Bft) 100,00 %
02.04.2021 17:30 12,1 C 12,0 C 12,1 C 48 % 0 cb 1017,5 hPa 0,0 l/m 8,0 km/h (2 Bft) N 360 10 min 0,000 mm 388 W/m 1,4 C 12,1 C 24,1 km/h (4 Bft) 100,00 %
02.04.2021 17:40 12,1 C 12,1 C 12,1 C 45 % 0 cb 1019,1 hPa 0,0 l/m 8,0 km/h (2 Bft) N 360 10 min 0,000 mm 360 W/m 0,5 C 12,1 C 20,9 km/h (4 Bft) 99,56 %
02.04.2021 17:50 11,9 C 11,9 C 12,1 C 46 % 0 cb 1018,7 hPa 0,0 l/m 9,7 km/h (2 Bft) N-NO 22 10 min 0,000 mm 336 W/m 0,7 C 11,9 C 22,5 km/h (4 Bft) 100,00 %
02.04.2021 18:00 11,9 C 11,9 C 11,9 C 46 % 0 cb 1019,4 hPa 0,0 l/m 8,0 km/h (2 Bft) N-NO 22 10 min 0,229 mm 304 W/m 0,7 C 11,9 C 22,5 km/h (4 Bft) 100,00 %
02.04.2021 18:10 11,7 C 11,7 C 11,9 C 46 % 0 cb 1020,5 hPa 0,0 l/m 9,7 km/h (2 Bft) N-NO 22 10 min 0,000 mm 272 W/m 0,5 C 11,7 C 22,5 km/h (4 Bft) 100,00 %
02.04.2021 18:20 11,4 C 11,4 C 11,7 C 47 % 0 cb 1020,6 hPa 0,0 l/m 11,3 km/h (2 Bft) N 360 10 min 0,000 mm 246 W/m 0,5 C 11,4 C 25,7 km/h (4 Bft) 100,00 %
02.04.2021 18:30 11,3 C 11,3 C 11,4 C 47 % 0 cb 1020,6 hPa 0,0 l/m 8,0 km/h (2 Bft) N-NO 22 10 min 0,000 mm 216 W/m 0,4 C 11,3 C 20,9 km/h (4 Bft) 100,00 %
02.04.2021 18:40 10,8 C 10,8 C 11,2 C 48 % 0 cb 1020,7 hPa 0,0 l/m 9,7 km/h (2 Bft) N-NO 22 10 min 0,000 mm 186 W/m 0,2 C 10,8 C 19,3 km/h (3 Bft) 100,00 %
02.04.2021 18:50 10,4 C 10,4 C 10,8 C 47 % 0 cb 1020,8 hPa 0,0 l/m 9,7 km/h (2 Bft) N-NO 22 10 min 0,000 mm 153 W/m -0,4 C 10,4 C 22,5 km/h (4 Bft) 100,00 %
02.04.2021 19:00 10,2 C 10,2 C 10,4 C 49 % 0 cb 1020,9 hPa 0,0 l/m 8,0 km/h (2 Bft) N-NO 22 0 min 0,152 mm 125 W/m -0,0 C 10,2 C 14,5 km/h (3 Bft) 100,00 %
02.04.2021 19:10 9,9 C 9,9 C 10,2 C 53 % 0 cb 1021,0 hPa 0,0 l/m 6,4 km/h (2 Bft) N-NO 22 0 min 0,000 mm 33 W/m 0,8 C 9,3 C 16,1 km/h (3 Bft) 100,00 %
02.04.2021 19:20 9,6 C 9,6 C 9,9 C 55 % 0 cb 1021,1 hPa 0,0 l/m 6,4 km/h (2 Bft) N-NO 22 0 min 0,000 mm 32 W/m 1,0 C 8,9 C 17,7 km/h (3 Bft) 100,00 %
02.04.2021 19:30 9,2 C 9,2 C 9,6 C 56 % 0 cb 1021,2 hPa 0,0 l/m 6,4 km/h (2 Bft) N-NO 22 0 min 0,000 mm 28 W/m 0,9 C 8,4 C 17,7 km/h (3 Bft) 100,00 %
02.04.2021 19:40 8,8 C 8,8 C 9,2 C 58 % 0 cb 1021,1 hPa 0,0 l/m 6,4 km/h (2 Bft) N-NO 22 0 min 0,000 mm 23 W/m 1,0 C 8,0 C 16,1 km/h (3 Bft) 100,00 %
02.04.2021 19:50 8,3 C 8,3 C 8,8 C 60 % 0 cb 1021,3 hPa 0,0 l/m 6,4 km/h (2 Bft) N-NW 337 0 min 0,000 mm 18 W/m 1,0 C 7,4 C 16,1 km/h (3 Bft) 100,00 %
02.04.2021 20:00 7,9 C 7,9 C 8,3 C 62 % 0 cb 1021,4 hPa 0,0 l/m 3,2 km/h (1 Bft) N-NW 337 0 min 0,051 mm 12 W/m 1,1 C 7,9 C 9,7 km/h (2 Bft) 100,00 %
02.04.2021 20:10 7,5 C 7,5 C 7,9 C 63 % 0 cb 1021,5 hPa 0,0 l/m 4,8 km/h (1 Bft) N-NW 337 0 min 0,000 mm 7 W/m 0,9 C 7,0 C 9,7 km/h (2 Bft) 100,00 %
02.04.2021 20:20 7,1 C 7,1 C 7,5 C 64 % 0 cb 1021,8 hPa 0,0 l/m 6,4 km/h (2 Bft) N-NW 337 0 min 0,000 mm 0 W/m 0,8 C 6,0 C 16,1 km/h (3 Bft) 100,00 %
02.04.2021 20:30 6,7 C 6,7 C 7,1 C 65 % 0 cb 1022,0 hPa 0,0 l/m 8,0 km/h (2 Bft) N-NW 337 0 min 0,000 mm 0 W/m 0,6 C 5,1 C 19,3 km/h (3 Bft) 100,00 %
02.04.2021 20:40 6,3 C 6,3 C 6,7 C 65 % 0 cb 1022,1 hPa 0,0 l/m 8,0 km/h (2 Bft) N-NW 337 0 min 0,000 mm 0 W/m 0,2 C 4,7 C 22,5 km/h (4 Bft) 100,00 %
02.04.2021 20:50 6,0 C 6,0 C 6,3 C 66 % 0 cb 1022,3 hPa 0,0 l/m 11,3 km/h (2 Bft) N-NW 337 0 min 0,000 mm 0 W/m 0,1 C 3,6 C 24,1 km/h (4 Bft) 100,00 %
02.04.2021 21:00 5,6 C 5,6 C 5,9 C 67 % 0 cb 1022,4 hPa 0,0 l/m 9,7 km/h (2 Bft) N 360 0 min 0,025 mm 0 W/m -0,0 C 3,4 C 24,1 km/h (4 Bft) 100,00 %
02.04.2021 21:10 5,3 C 5,3 C 5,6 C 68 % 0 cb 1022,5 hPa 0,0 l/m 9,7 km/h (2 Bft) N 360 0 min 0,000 mm 0 W/m -0,1 C 3,1 C 20,9 km/h (4 Bft) 100,00 %
02.04.2021 21:20 5,1 C 5,1 C 5,3 C 69 % 0 cb 1022,6 hPa 0,0 l/m 9,7 km/h (2 Bft) N 360 0 min 0,000 mm 0 W/m -0,1 C 2,8 C 22,5 km/h (4 Bft) 100,00 %
02.04.2021 21:30 4,8 C 4,8 C 5,1 C 69 % 0 cb 1022,7 hPa 0,0 l/m 8,0 km/h (2 Bft) N 360 0 min 0,000 mm 0 W/m -0,4 C 2,9 C 25,7 km/h (4 Bft) 100,00 %
02.04.2021 21:40 4,6 C 4,6 C 4,8 C 70 % 0 cb 1022,8 hPa 0,0 l/m 8,0 km/h (2 Bft) N 360 0 min 0,000 mm 0 W/m -0,4 C 2,7 C 19,3 km/h (3 Bft) 100,00 %
02.04.2021 21:50 4,4 C 4,4 C 4,6 C 70 % 0 cb 1022,9 hPa 0,0 l/m 6,4 km/h (2 Bft) N 360 0 min 0,000 mm 0 W/m -0,6 C 2,9 C 12,9 km/h (3 Bft) 100,00 %
02.04.2021 22:00 4,2 C 4,2 C 4,4 C 71 % 0 cb 1022,9 hPa 0,0 l/m 4,8 km/h (1 Bft) N-NO 22 0 min 0,025 mm 0 W/m -0,6 C 3,3 C 12,9 km/h (3 Bft) 100,00 %
02.04.2021 22:10 4,1 C 4,1 C 4,3 C 72 % 0 cb 1023,0 hPa 0,0 l/m 4,8 km/h (1 Bft) N-NO 22 0 min 0,000 mm 0 W/m -0,5 C 3,1 C 22,5 km/h (4 Bft) 100,00 %
02.04.2021 22:20 4,0 C 4,0 C 4,1 C 73 % 0 cb 1023,1 hPa 0,0 l/m 6,4 km/h (2 Bft) N 360 0 min 0,000 mm 0 W/m -0,4 C 2,4 C 20,9 km/h (4 Bft) 100,00 %
02.04.2021 22:30 3,9 C 3,9 C 4,0 C 73 % 0 cb 1023,0 hPa 0,0 l/m 4,8 km/h (1 Bft) N-NO 22 0 min 0,000 mm 0 W/m -0,5 C 2,9 C 17,7 km/h (3 Bft) 100,00 %
02.04.2021 22:40 3,8 C 3,8 C 3,9 C 73 % 0 cb 1023,0 hPa 0,0 l/m 9,7 km/h (2 Bft) N-NO 22 0 min 0,000 mm 0 W/m -0,6 C 1,3 C 22,5 km/h (4 Bft) 100,00 %
02.04.2021 22:50 3,8 C 3,8 C 3,8 C 73 % 0 cb 1023,0 hPa 0,0 l/m 9,7 km/h (2 Bft) N-NO 22 0 min 0,000 mm 0 W/m -0,6 C 1,3 C 27,4 km/h (4 Bft) 100,00 %
02.04.2021 23:00 3,6 C 3,6 C 3,8 C 73 % 0 cb 1023,0 hPa 0,0 l/m 8,0 km/h (2 Bft) N 360 0 min 0,025 mm 0 W/m -0,8 C 1,5 C 20,9 km/h (4 Bft) 100,00 %
02.04.2021 23:10 3,5 C 3,5 C 3,6 C 74 % 0 cb 1023,1 hPa 0,0 l/m 9,7 km/h (2 Bft) N-NW 337 0 min 0,000 mm 0 W/m -0,7 C 0,9 C 22,5 km/h (4 Bft) 100,00 %
02.04.2021 23:20 3,4 C 3,4 C 3,5 C 74 % 0 cb 1023,1 hPa 0,0 l/m 9,7 km/h (2 Bft) N-NO 22 0 min 0,000 mm 0 W/m -0,8 C 0,8 C 24,1 km/h (4 Bft) 98,68 %
02.04.2021 23:30 3,4 C 3,4 C 3,4 C 74 % 0 cb 1023,1 hPa 0,0 l/m 8,0 km/h (2 Bft) N-NW 337 0 min 0,000 mm 0 W/m -0,8 C 1,3 C 20,9 km/h (4 Bft) 100,00 %
02.04.2021 23:40 3,3 C 3,3 C 3,4 C 74 % 0 cb 1023,2 hPa 0,0 l/m 6,4 km/h (2 Bft) N-NW 337 0 min 0,000 mm 0 W/m -0,9 C 1,6 C 24,1 km/h (4 Bft) 100,00 %
02.04.2021 23:50 3,3 C 3,3 C 3,3 C 74 % 0 cb 1023,3 hPa 0,0 l/m 6,4 km/h (2 Bft) N 360 0 min 0,000 mm 0 W/m -0,9 C 1,6 C 22,5 km/h (4 Bft) 100,00 %
_ Min-Zeit 07:30 07:30 07:50 17:40 00:00 17:30 - 02:10 - - - - - 23:40 23:20 02:20 00:10
Minimum _ 3,2 C 3,2 C 3,2 C 45 % 0 cb 1017,5 hPa - 1,6 km/h (1 Bft) - - - - - -0,9 C 0,8 C 4,8 km/h (1 Bft) 77,63 %
_ Max-Zeit 00:00 00:00 00:00 07:50 00:00 23:50 00:00 10:10 - - 08:40 14:00 11:30 00:10 00:00 22:50 00:00
Maximum _ 12,8 C 12,4 C 12,8 C 84 % 0 cb 1023,3 hPa 0,0 l/m 11,3 km/h
N-NO (2 Bft)
- - 10 min 0,356 mm 800 W/m 6,9 C 12,4 C 27,4 km/h
NO (4 Bft)
100,00 %
Durchschnitt _ 7,7 C 7,6 C 7,8 C 67 % 0 cb 1021,0 hPa #0,0 l/m 6,9 km/h (2 Bft) N-NO - #10:20 h #2,968 mm 410 W/m 1,7 C 6,8 C 18,3 km/h (3 Bft) 99,74 %
Wetterstation Gdesweiler